sensor_id;sensor_type;location;lat;lon;timestamp;pressure;altitude;pressure_sealevel;temperature;humidity
75923;BME280;64602;47.542;19.090;2023-02-20T06:50:19;101264.22;;;4.21;64.14
75923;BME280;64602;47.542;19.090;2023-02-20T06:55:22;101252.47;;;4.22;64.31
75923;BME280;64602;47.542;19.090;2023-02-20T07:00:24;101245.22;;;4.23;63.28
75923;BME280;64602;47.542;19.090;2023-02-20T07:05:26;101249.91;;;4.36;63.00
75923;BME280;64602;47.542;19.090;2023-02-20T07:10:30;101261.88;;;4.33;62.40
75923;BME280;64602;47.542;19.090;2023-02-20T07:15:32;101254.53;;;4.42;62.73
75923;BME280;64602;47.542;19.090;2023-02-20T07:20:34;101232.84;;;4.43;62.78
75923;BME280;64602;47.542;19.090;2023-02-20T07:25:36;101255.56;;;4.62;64.30
75923;BME280;64602;47.542;19.090;2023-02-20T07:30:38;101243.41;;;4.66;64.22
75923;BME280;64602;47.542;19.090;2023-02-20T07:35:40;101242.56;;;4.66;62.34
75923;BME280;64602;47.542;19.090;2023-02-20T07:40:43;101255.06;;;4.74;62.23
75923;BME280;64602;47.542;19.090;2023-02-20T07:45:45;101273.22;;;5.14;61.66
75923;BME280;64602;47.542;19.090;2023-02-20T07:50:47;101269.00;;;5.05;63.04
75923;BME280;64602;47.542;19.090;2023-02-20T07:55:49;101254.59;;;4.91;63.56
75923;BME280;64602;47.542;19.090;2023-02-20T08:00:51;101251.75;;;5.21;63.55
75923;BME280;64602;47.542;19.090;2023-02-20T08:05:54;101260.13;;;5.33;64.08
75923;BME280;64602;47.542;19.090;2023-02-20T08:10:57;101262.41;;;5.36;63.83
75923;BME280;64602;47.542;19.090;2023-02-20T08:16:10;101265.41;;;5.48;63.92
75923;BME280;64602;47.542;19.090;2023-02-20T08:21:13;101236.28;;;5.65;64.35
75923;BME280;64602;47.542;19.090;2023-02-20T08:26:15;101240.72;;;5.79;64.11
75923;BME280;64602;47.542;19.090;2023-02-20T08:31:17;101253.63;;;5.90;64.30
75923;BME280;64602;47.542;19.090;2023-02-20T08:36:32;101238.38;;;5.97;65.02
75923;BME280;64602;47.542;19.090;2023-02-20T08:41:41;101245.84;;;6.02;64.80
75923;BME280;64602;47.542;19.090;2023-02-20T08:46:45;101226.63;;;6.12;64.41
75923;BME280;64602;47.542;19.090;2023-02-20T08:51:52;101243.31;;;6.49;63.73
75923;BME280;64602;47.542;19.090;2023-02-20T08:56:55;101231.31;;;6.58;64.02
75923;BME280;64602;47.542;19.090;2023-02-20T09:01:57;101236.50;;;6.73;63.75
75923;BME280;64602;47.542;19.090;2023-02-20T09:06:59;101218.84;;;6.57;63.70
75923;BME280;64602;47.542;19.090;2023-02-20T09:12:01;101225.50;;;6.88;63.63
75923;BME280;64602;47.542;19.090;2023-02-20T09:17:04;101219.06;;;7.15;62.94
75923;BME280;64602;47.542;19.090;2023-02-20T09:22:06;101203.03;;;7.47;62.21
75923;BME280;64602;47.542;19.090;2023-02-20T09:27:08;101209.16;;;7.74;63.49
75923;BME280;64602;47.542;19.090;2023-02-20T09:32:11;101195.72;;;7.67;63.56
75923;BME280;64602;47.542;19.090;2023-02-20T09:37:14;101190.50;;;7.73;64.05
75923;BME280;64602;47.542;19.090;2023-02-20T09:47:50;101181.06;;;7.88;63.89
75923;BME280;64602;47.542;19.090;2023-02-20T09:53:20;101199.06;;;8.08;64.08
75923;BME280;64602;47.542;19.090;2023-02-20T09:58:26;101180.59;;;7.98;65.00
75923;BME280;64602;47.542;19.090;2023-02-20T10:08:49;101163.59;;;8.61;63.43
75923;BME280;64602;47.542;19.090;2023-02-20T10:14:06;101154.75;;;8.97;62.95
75923;BME280;64602;47.542;19.090;2023-02-20T10:19:40;101149.31;;;9.23;63.27
75923;BME280;64602;47.542;19.090;2023-02-20T10:25:03;101139.09;;;9.43;62.33
75923;BME280;64602;47.542;19.090;2023-02-20T10:30:10;101131.72;;;9.50;62.30
75923;BME280;64602;47.542;19.090;2023-02-20T10:35:24;101127.75;;;10.13;60.35
75923;BME280;64602;47.542;19.090;2023-02-20T10:45:51;101125.22;;;15.41;46.79
75923;BME280;64602;47.542;19.090;2023-02-20T10:56:10;101088.81;;;12.18;53.79
75923;BME280;64602;47.542;19.090;2023-02-20T11:01:20;101071.06;;;11.41;55.82
75923;BME280;64602;47.542;19.090;2023-02-20T11:06:29;101069.06;;;13.83;49.94
75923;BME280;64602;47.542;19.090;2023-02-20T11:11:35;101050.87;;;13.40;49.97
75923;BME280;64602;47.542;19.090;2023-02-20T11:21:55;101031.28;;;13.21;51.24
75923;BME280;64602;47.542;19.090;2023-02-20T11:27:04;101020.00;;;13.34;50.28
75923;BME280;64602;47.542;19.090;2023-02-20T11:37:31;101016.13;;;13.79;49.51
75923;BME280;64602;47.542;19.090;2023-02-20T11:42:40;101009.31;;;13.82;49.52
75923;BME280;64602;47.542;19.090;2023-02-20T11:47:43;100998.06;;;14.85;47.21
75923;BME280;64602;47.542;19.090;2023-02-20T11:53:05;100997.44;;;18.04;40.63
75923;BME280;64602;47.542;19.090;2023-02-20T11:58:25;100991.59;;;21.78;31.99
75923;BME280;64602;47.542;19.090;2023-02-20T12:03:30;100968.53;;;20.68;32.85
75923;BME280;64602;47.542;19.090;2023-02-20T12:08:55;100950.34;;;18.69;37.68
75923;BME280;64602;47.542;19.090;2023-02-20T12:13:59;100964.50;;;24.74;29.33
75923;BME280;64602;47.542;19.090;2023-02-20T12:19:16;100947.50;;;28.77;23.05
75923;BME280;64602;47.542;19.090;2023-02-20T12:30:18;100888.75;;;19.65;34.33
75923;BME280;64602;47.542;19.090;2023-02-20T12:35:33;100886.62;;;19.95;34.68
75923;BME280;64602;47.542;19.090;2023-02-20T12:51:23;100887.47;;;21.87;31.90
75923;BME280;64602;47.542;19.090;2023-02-20T13:02:29;100855.03;;;18.41;36.35
75923;BME280;64602;47.542;19.090;2023-02-20T13:07:51;100865.31;;;17.37;38.92
75923;BME280;64602;47.542;19.090;2023-02-20T13:12:54;100850.06;;;15.96;41.66
75923;BME280;64602;47.542;19.090;2023-02-20T13:18:19;100859.34;;;15.44;43.29
75923;BME280;64602;47.542;19.090;2023-02-20T13:23:34;100839.22;;;14.56;45.64
75923;BME280;64602;47.542;19.090;2023-02-20T13:28:40;100837.91;;;14.11;47.29
75923;BME280;64602;47.542;19.090;2023-02-20T13:34:01;100825.97;;;13.42;48.33
75923;BME280;64602;47.542;19.090;2023-02-20T13:54:50;100813.31;;;14.06;47.60
75923;BME280;64602;47.542;19.090;2023-02-20T13:59:53;100796.34;;;13.99;47.38
75923;BME280;64602;47.542;19.090;2023-02-20T14:04:59;100787.13;;;13.62;47.34
75923;BME280;64602;47.542;19.090;2023-02-20T14:10:13;100783.63;;;13.02;48.59
75923;BME280;64602;47.542;19.090;2023-02-20T14:15:15;100778.28;;;12.86;48.88
75923;BME280;64602;47.542;19.090;2023-02-20T14:20:32;100787.22;;;12.81;49.10
75923;BME280;64602;47.542;19.090;2023-02-20T14:25:35;100801.44;;;12.61;49.78
75923;BME280;64602;47.542;19.090;2023-02-20T14:30:38;100787.84;;;12.61;49.76
75923;BME280;64602;47.542;19.090;2023-02-20T14:35:55;100780.75;;;12.60;49.23
75923;BME280;64602;47.542;19.090;2023-02-20T14:41:11;100777.50;;;12.63;48.67
75923;BME280;64602;47.542;19.090;2023-02-20T14:46:22;100744.81;;;12.90;48.37
75923;BME280;64602;47.542;19.090;2023-02-20T14:51:25;100747.69;;;12.78;48.23
75923;BME280;64602;47.542;19.090;2023-02-20T14:56:28;100745.09;;;13.21;47.63
75923;BME280;64602;47.542;19.090;2023-02-20T15:01:38;100767.44;;;12.64;48.60
75923;BME280;64602;47.542;19.090;2023-02-20T15:06:44;100750.28;;;12.36;49.66
75923;BME280;64602;47.542;19.090;2023-02-20T15:11:49;100737.94;;;12.06;50.23
75923;BME280;64602;47.542;19.090;2023-02-20T15:17:19;100744.97;;;12.02;50.40
75923;BME280;64602;47.542;19.090;2023-02-20T15:27:26;100729.06;;;11.94;50.06
75923;BME280;64602;47.542;19.090;2023-02-20T15:32:29;100722.56;;;12.17;49.73
75923;BME280;64602;47.542;19.090;2023-02-20T15:37:34;100714.56;;;12.32;48.72
75923;BME280;64602;47.542;19.090;2023-02-20T15:42:49;100690.78;;;12.23;48.97
75923;BME280;64602;47.542;19.090;2023-02-20T15:47:57;100703.25;;;11.96;49.66
75923;BME280;64602;47.542;19.090;2023-02-20T15:53:01;100687.19;;;11.73;50.27
75923;BME280;64602;47.542;19.090;2023-02-20T15:58:09;100665.91;;;11.48;50.75
75923;BME280;64602;47.542;19.090;2023-02-20T16:03:26;100669.50;;;11.31;52.48
75923;BME280;64602;47.542;19.090;2023-02-20T16:08:32;100652.66;;;11.12;54.76
75923;BME280;64602;47.542;19.090;2023-02-20T16:13:37;100643.69;;;10.95;56.96
75923;BME280;64602;47.542;19.090;2023-02-20T16:18:40;100648.72;;;10.86;58.02
75923;BME280;64602;47.542;19.090;2023-02-20T16:23:42;100647.75;;;10.76;58.56
75923;BME280;64602;47.542;19.090;2023-02-20T16:28:52;100630.63;;;10.58;59.27
75923;BME280;64602;47.542;19.090;2023-02-20T16:33:55;100622.31;;;10.48;60.13
75923;BME280;64602;47.542;19.090;2023-02-20T16:38:57;100624.25;;;10.36;60.50
75923;BME280;64602;47.542;19.090;2023-02-20T16:44:00;100604.62;;;10.17;61.53
75923;BME280;64602;47.542;19.090;2023-02-20T16:49:04;100607.44;;;10.05;62.09
75923;BME280;64602;47.542;19.090;2023-02-20T16:54:08;100617.09;;;10.01;62.50
75923;BME280;64602;47.542;19.090;2023-02-20T16:59:10;100611.50;;;9.91;63.00
75923;BME280;64602;47.542;19.090;2023-02-20T17:04:13;100592.78;;;9.77;63.10
75923;BME280;64602;47.542;19.090;2023-02-20T17:09:16;100603.41;;;9.79;63.39
75923;BME280;64602;47.542;19.090;2023-02-20T17:14:18;100591.44;;;9.63;63.65
75923;BME280;64602;47.542;19.090;2023-02-20T17:19:20;100604.38;;;9.61;63.60
75923;BME280;64602;47.542;19.090;2023-02-20T17:24:22;100590.75;;;9.56;63.89
75923;BME280;64602;47.542;19.090;2023-02-20T17:29:25;100580.88;;;9.50;64.03
75923;BME280;64602;47.542;19.090;2023-02-20T17:34:28;100595.16;;;9.45;64.41
75923;BME280;64602;47.542;19.090;2023-02-20T17:39:30;100584.09;;;9.35;64.19
75923;BME280;64602;47.542;19.090;2023-02-20T17:44:32;100588.81;;;9.39;64.66
75923;BME280;64602;47.542;19.090;2023-02-20T17:49:35;100590.72;;;9.27;64.58
75923;BME280;64602;47.542;19.090;2023-02-20T17:54:37;100586.25;;;9.21;64.67
75923;BME280;64602;47.542;19.090;2023-02-20T17:59:40;100600.13;;;9.25;64.75
75923;BME280;64602;47.542;19.090;2023-02-20T18:04:43;100578.12;;;9.09;65.36
75923;BME280;64602;47.542;19.090;2023-02-20T18:09:45;100591.66;;;9.09;65.54
75923;BME280;64602;47.542;19.090;2023-02-20T18:14:47;100562.72;;;8.98;65.90
75923;BME280;64602;47.542;19.090;2023-02-20T18:19:50;100569.09;;;8.92;66.26
75923;BME280;64602;47.542;19.090;2023-02-20T18:24:52;100569.91;;;8.92;66.48
75923;BME280;64602;47.542;19.090;2023-02-20T18:29:54;100558.75;;;8.89;66.56
75923;BME280;64602;47.542;19.090;2023-02-20T18:34:57;100546.63;;;8.91;66.39
75923;BME280;64602;47.542;19.090;2023-02-20T18:39:59;100546.84;;;8.90;66.68
75923;BME280;64602;47.542;19.090;2023-02-20T18:45:02;100541.91;;;8.87;66.69
75923;BME280;64602;47.542;19.090;2023-02-20T18:50:04;100521.91;;;8.76;66.64
75923;BME280;64602;47.542;19.090;2023-02-20T18:55:07;100516.84;;;8.80;66.40
75923;BME280;64602;47.542;19.090;2023-02-20T19:00:11;100511.66;;;8.78;66.88
75923;BME280;64602;47.542;19.090;2023-02-20T19:05:13;100503.22;;;8.74;66.66
75923;BME280;64602;47.542;19.090;2023-02-20T19:10:33;100506.84;;;8.80;66.77
75923;BME280;64602;47.542;19.090;2023-02-20T19:15:35;100492.62;;;8.73;66.96
75923;BME280;64602;47.542;19.090;2023-02-20T19:20:37;100488.41;;;8.65;67.09
75923;BME280;64602;47.542;19.090;2023-02-20T19:25:40;100495.00;;;8.69;67.36
75923;BME280;64602;47.542;19.090;2023-02-20T19:30:43;100484.28;;;8.63;67.44
75923;BME280;64602;47.542;19.090;2023-02-20T19:35:46;100482.66;;;8.62;67.34
75923;BME280;64602;47.542;19.090;2023-02-20T19:40:49;100479.34;;;8.60;67.59
75923;BME280;64602;47.542;19.090;2023-02-20T19:45:51;100471.47;;;8.46;68.04
75923;BME280;64602;47.542;19.090;2023-02-20T19:50:53;100456.28;;;8.33;68.53
75923;BME280;64602;47.542;19.090;2023-02-20T19:55:57;100453.22;;;8.30;68.89
75923;BME280;64602;47.542;19.090;2023-02-20T20:00:59;100441.47;;;8.24;69.00
75923;BME280;64602;47.542;19.090;2023-02-20T20:06:01;100424.78;;;8.04;69.63
75923;BME280;64602;47.542;19.090;2023-02-20T20:11:03;100417.72;;;8.03;69.30
75923;BME280;64602;47.542;19.090;2023-02-20T20:16:06;100429.12;;;8.05;69.72
75923;BME280;64602;47.542;19.090;2023-02-20T20:21:08;100428.38;;;7.86;70.10
75923;BME280;64602;47.542;19.090;2023-02-20T20:26:10;100425.56;;;7.81;70.26
75923;BME280;64602;47.542;19.090;2023-02-20T20:31:17;100407.34;;;7.76;70.07
75923;BME280;64602;47.542;19.090;2023-02-20T20:36:20;100413.25;;;8.20;68.06
75923;BME280;64602;47.542;19.090;2023-02-20T20:41:22;100427.25;;;8.52;67.05
75923;BME280;64602;47.542;19.090;2023-02-20T20:46:25;100417.47;;;8.63;66.48
75923;BME280;64602;47.542;19.090;2023-02-20T20:51:28;100409.81;;;8.72;66.11
75923;BME280;64602;47.542;19.090;2023-02-20T20:56:30;100417.53;;;8.80;66.04
75923;BME280;64602;47.542;19.090;2023-02-20T21:01:32;100417.91;;;8.84;66.17
75923;BME280;64602;47.542;19.090;2023-02-20T21:06:34;100401.91;;;8.82;66.19
75923;BME280;64602;47.542;19.090;2023-02-20T21:11:37;100386.66;;;8.93;65.64
75923;BME280;64602;47.542;19.090;2023-02-20T21:16:39;100389.72;;;8.96;65.69
75923;BME280;64602;47.542;19.090;2023-02-20T21:21:41;100383.41;;;8.91;65.70
75923;BME280;64602;47.542;19.090;2023-02-20T21:26:43;100391.38;;;8.97;65.87
75923;BME280;64602;47.542;19.090;2023-02-20T21:31:46;100387.03;;;8.96;65.69
